TimePDT,TemperatureF,Dew PointF,Humidity,Sea Level PressureIn,VisibilityMPH,Wind Direction,Wind SpeedMPH,Gust SpeedMPH,PrecipitationIn,Events,Conditions,WindDirDegrees,DateUTC
12:53 AM,57.0,48.0,72,30.13,10.0,South,3.5,-,N/A,,Partly Cloudy,180,2013-06-28 07:53:00
1:53 AM,57.9,48.0,70,30.12,10.0,SW,5.8,-,N/A,,Mostly Cloudy,230,2013-06-28 08:53:00
2:53 AM,57.0,48.0,72,30.12,10.0,SW,5.8,-,N/A,,Mostly Cloudy,220,2013-06-28 09:53:00
3:53 AM,57.0,46.9,69,30.11,10.0,WSW,4.6,-,N/A,,Mostly Cloudy,240,2013-06-28 10:53:00
4:53 AM,55.9,48.0,75,30.13,10.0,NW,3.5,-,N/A,,Overcast,310,2013-06-28 11:53:00
5:53 AM,55.9,48.9,77,30.13,10.0,Calm,Calm,-,N/A,,Partly Cloudy,0,2013-06-28 12:53:00
6:53 AM,59.0,48.0,67,30.15,10.0,Calm,Calm,-,N/A,,Mostly Cloudy,0,2013-06-28 13:53:00
7:53 AM,60.1,48.9,67,30.15,10.0,Variable,3.5,-,N/A,,Partly Cloudy,0,2013-06-28 14:53:00
8:53 AM,63.0,48.9,60,30.16,10.0,Calm,Calm,-,N/A,,Clear,0,2013-06-28 15:53:00
9:53 AM,64.9,48.0,54,30.15,10.0,Calm,Calm,-,N/A,,Clear,0,2013-06-28 16:53:00
10:53 AM,68.0,48.9,50,30.14,10.0,Calm,Calm,-,N/A,,Clear,0,2013-06-28 17:53:00
11:53 AM,71.1,50.0,47,30.13,10.0,Calm,Calm,-,N/A,,Clear,0,2013-06-28 18:53:00
12:53 PM,72.0,50.0,46,30.12,10.0,Variable,4.6,-,N/A,,Partly Cloudy,0,2013-06-28 19:53:00
1:53 PM,73.9,51.1,45,30.11,10.0,Calm,Calm,-,N/A,,Scattered Clouds,0,2013-06-28 20:53:00
2:53 PM,75.0,50.0,41,30.10,10.0,NNW,4.6,-,N/A,,Partly Cloudy,340,2013-06-28 21:53:00
3:53 PM,77.0,46.0,33,30.08,10.0,Variable,3.5,-,N/A,,Clear,0,2013-06-28 22:53:00
4:53 PM,75.0,41.0,29,30.08,10.0,Variable,4.6,-,N/A,,Clear,0,2013-06-28 23:53:00
5:53 PM,75.0,43.0,32,30.06,10.0,Calm,Calm,-,N/A,,Clear,0,2013-06-29 00:53:00
6:53 PM,73.9,46.9,38,30.05,10.0,Calm,Calm,-,N/A,,Clear,0,2013-06-29 01:53:00
7:53 PM,71.1,48.9,45,30.05,10.0,NW,5.8,-,N/A,,Clear,320,2013-06-29 02:53:00
8:53 PM,66.0,52.0,60,30.05,10.0,NW,4.6,-,N/A,,Clear,320,2013-06-29 03:53:00
9:53 PM,66.0,51.1,59,30.05,10.0,NW,3.5,-,N/A,,Clear,310,2013-06-29 04:53:00
10:53 PM,66.9,48.9,52,30.03,10.0,Calm,Calm,-,N/A,,Clear,0,2013-06-29 05:53:00
11:53 PM,66.0,48.9,54,30.02,10.0,Calm,Calm,-,N/A,,Clear,0,2013-06-29 06:53:00